sensor_id;sensor_type;location;lat;lon;timestamp;P1;durP1;ratioP1;P2;durP2;ratioP2
9860;SDS011;4969;52.304;4.968;2023-08-01T00:00:57;6.38;;;3.53;;
9860;SDS011;4969;52.304;4.968;2023-08-01T00:03:24;7.93;;;3.63;;
9860;SDS011;4969;52.304;4.968;2023-08-01T00:05:50;9.05;;;3.42;;
9860;SDS011;4969;52.304;4.968;2023-08-01T00:08:17;5.85;;;3.47;;
9860;SDS011;4969;52.304;4.968;2023-08-01T00:10:43;6.55;;;3.25;;
9860;SDS011;4969;52.304;4.968;2023-08-01T00:13:11;5.50;;;3.20;;
9860;SDS011;4969;52.304;4.968;2023-08-01T00:15:38;6.55;;;3.50;;
9860;SDS011;4969;52.304;4.968;2023-08-01T00:18:05;6.88;;;3.22;;
9860;SDS011;4969;52.304;4.968;2023-08-01T00:20:31;7.05;;;3.45;;
9860;SDS011;4969;52.304;4.968;2023-08-01T00:22:58;7.03;;;3.38;;
9860;SDS011;4969;52.304;4.968;2023-08-01T00:25:24;3.92;;;3.00;;
9860;SDS011;4969;52.304;4.968;2023-08-01T00:27:52;4.13;;;3.10;;
9860;SDS011;4969;52.304;4.968;2023-08-01T00:30:20;5.53;;;3.35;;
9860;SDS011;4969;52.304;4.968;2023-08-01T00:32:47;5.35;;;3.20;;
9860;SDS011;4969;52.304;4.968;2023-08-01T00:35:13;8.93;;;3.80;;
9860;SDS011;4969;52.304;4.968;2023-08-01T00:37:41;6.43;;;3.45;;
9860;SDS011;4969;52.304;4.968;2023-08-01T00:40:08;6.60;;;3.85;;
9860;SDS011;4969;52.304;4.968;2023-08-01T00:42:35;6.05;;;3.40;;
9860;SDS011;4969;52.304;4.968;2023-08-01T00:45:02;11.00;;;3.53;;
9860;SDS011;4969;52.304;4.968;2023-08-01T00:47:31;6.70;;;3.55;;
9860;SDS011;4969;52.304;4.968;2023-08-01T00:49:58;5.78;;;3.40;;
9860;SDS011;4969;52.304;4.968;2023-08-01T00:52:24;5.80;;;3.78;;
9860;SDS011;4969;52.304;4.968;2023-08-01T00:54:51;9.60;;;4.20;;
9860;SDS011;4969;52.304;4.968;2023-08-01T00:57:18;10.27;;;3.42;;
9860;SDS011;4969;52.304;4.968;2023-08-01T00:59:44;7.43;;;3.50;;
9860;SDS011;4969;52.304;4.968;2023-08-01T01:02:11;6.93;;;3.72;;
9860;SDS011;4969;52.304;4.968;2023-08-01T01:04:39;6.15;;;3.58;;
9860;SDS011;4969;52.304;4.968;2023-08-01T01:07:06;8.80;;;3.97;;
9860;SDS011;4969;52.304;4.968;2023-08-01T01:09:33;9.80;;;3.90;;
9860;SDS011;4969;52.304;4.968;2023-08-01T01:12:00;10.95;;;4.45;;
9860;SDS011;4969;52.304;4.968;2023-08-01T01:14:26;11.25;;;4.20;;
9860;SDS011;4969;52.304;4.968;2023-08-01T01:16:53;9.30;;;3.88;;
9860;SDS011;4969;52.304;4.968;2023-08-01T01:19:20;9.43;;;4.10;;
9860;SDS011;4969;52.304;4.968;2023-08-01T01:21:48;7.82;;;3.95;;
9860;SDS011;4969;52.304;4.968;2023-08-01T01:24:16;11.20;;;4.40;;
9860;SDS011;4969;52.304;4.968;2023-08-01T01:26:44;8.10;;;4.15;;
9860;SDS011;4969;52.304;4.968;2023-08-01T01:29:12;11.15;;;4.32;;
9860;SDS011;4969;52.304;4.968;2023-08-01T01:31:39;9.27;;;4.00;;
9860;SDS011;4969;52.304;4.968;2023-08-01T01:34:07;8.00;;;4.28;;
9860;SDS011;4969;52.304;4.968;2023-08-01T01:36:35;8.20;;;4.10;;
9860;SDS011;4969;52.304;4.968;2023-08-01T01:39:03;7.75;;;3.60;;
9860;SDS011;4969;52.304;4.968;2023-08-01T01:41:29;8.60;;;4.45;;
9860;SDS011;4969;52.304;4.968;2023-08-01T01:43:56;10.73;;;4.63;;
9860;SDS011;4969;52.304;4.968;2023-08-01T01:46:22;13.30;;;4.47;;
9860;SDS011;4969;52.304;4.968;2023-08-01T01:48:49;10.00;;;4.25;;
9860;SDS011;4969;52.304;4.968;2023-08-01T01:51:16;10.27;;;4.45;;
9860;SDS011;4969;52.304;4.968;2023-08-01T01:53:42;7.28;;;4.28;;
9860;SDS011;4969;52.304;4.968;2023-08-01T01:56:10;8.70;;;4.32;;
9860;SDS011;4969;52.304;4.968;2023-08-01T01:58:37;6.05;;;4.25;;
9860;SDS011;4969;52.304;4.968;2023-08-01T02:01:03;7.28;;;4.03;;
9860;SDS011;4969;52.304;4.968;2023-08-01T02:03:30;9.30;;;4.53;;
9860;SDS011;4969;52.304;4.968;2023-08-01T02:05:57;10.52;;;4.50;;
9860;SDS011;4969;52.304;4.968;2023-08-01T02:08:23;7.97;;;4.38;;
9860;SDS011;4969;52.304;4.968;2023-08-01T02:10:50;8.13;;;4.80;;
9860;SDS011;4969;52.304;4.968;2023-08-01T02:13:18;10.63;;;4.25;;
9860;SDS011;4969;52.304;4.968;2023-08-01T02:15:44;9.32;;;3.97;;
9860;SDS011;4969;52.304;4.968;2023-08-01T02:18:11;11.77;;;3.85;;
9860;SDS011;4969;52.304;4.968;2023-08-01T02:20:37;6.80;;;3.70;;
9860;SDS011;4969;52.304;4.968;2023-08-01T02:23:04;5.93;;;3.50;;
9860;SDS011;4969;52.304;4.968;2023-08-01T02:25:31;8.70;;;3.70;;
9860;SDS011;4969;52.304;4.968;2023-08-01T02:27:57;5.88;;;3.20;;
9860;SDS011;4969;52.304;4.968;2023-08-01T02:30:25;4.65;;;3.13;;
9860;SDS011;4969;52.304;4.968;2023-08-01T02:32:53;5.97;;;3.10;;
9860;SDS011;4969;52.304;4.968;2023-08-01T02:35:20;3.70;;;2.75;;
9860;SDS011;4969;52.304;4.968;2023-08-01T02:37:46;5.38;;;2.90;;
9860;SDS011;4969;52.304;4.968;2023-08-01T02:40:13;4.95;;;2.60;;
9860;SDS011;4969;52.304;4.968;2023-08-01T02:42:40;7.30;;;2.70;;
9860;SDS011;4969;52.304;4.968;2023-08-01T02:45:06;4.25;;;2.45;;
9860;SDS011;4969;52.304;4.968;2023-08-01T02:47:35;6.78;;;3.25;;
9860;SDS011;4969;52.304;4.968;2023-08-01T02:50:02;5.72;;;2.60;;
9860;SDS011;4969;52.304;4.968;2023-08-01T02:52:28;4.60;;;2.55;;
9860;SDS011;4969;52.304;4.968;2023-08-01T02:54:55;8.95;;;3.00;;
9860;SDS011;4969;52.304;4.968;2023-08-01T02:57:21;4.13;;;2.53;;
9860;SDS011;4969;52.304;4.968;2023-08-01T02:59:48;6.97;;;2.60;;
9860;SDS011;4969;52.304;4.968;2023-08-01T03:02:15;4.18;;;2.40;;
9860;SDS011;4969;52.304;4.968;2023-08-01T03:04:43;3.88;;;2.60;;
9860;SDS011;4969;52.304;4.968;2023-08-01T03:07:09;5.13;;;2.53;;
9860;SDS011;4969;52.304;4.968;2023-08-01T03:09:36;3.85;;;2.50;;
9860;SDS011;4969;52.304;4.968;2023-08-01T03:12:03;5.68;;;2.80;;
9860;SDS011;4969;52.304;4.968;2023-08-01T03:14:30;6.35;;;2.60;;
9860;SDS011;4969;52.304;4.968;2023-08-01T03:16:57;8.10;;;2.88;;
9860;SDS011;4969;52.304;4.968;2023-08-01T03:19:23;9.20;;;3.60;;
9860;SDS011;4969;52.304;4.968;2023-08-01T03:21:51;7.18;;;3.20;;
9860;SDS011;4969;52.304;4.968;2023-08-01T03:24:18;7.07;;;3.33;;
9860;SDS011;4969;52.304;4.968;2023-08-01T03:26:44;6.95;;;3.25;;
9860;SDS011;4969;52.304;4.968;2023-08-01T03:29:11;7.78;;;4.10;;
9860;SDS011;4969;52.304;4.968;2023-08-01T03:31:38;10.63;;;4.00;;
9860;SDS011;4969;52.304;4.968;2023-08-01T03:34:04;7.18;;;4.03;;
9860;SDS011;4969;52.304;4.968;2023-08-01T03:36:33;10.18;;;4.45;;
9860;SDS011;4969;52.304;4.968;2023-08-01T03:39:01;9.38;;;5.00;;
9860;SDS011;4969;52.304;4.968;2023-08-01T03:41:28;6.88;;;3.95;;
9860;SDS011;4969;52.304;4.968;2023-08-01T03:43:55;8.57;;;4.22;;
9860;SDS011;4969;52.304;4.968;2023-08-01T03:46:22;6.07;;;3.85;;
9860;SDS011;4969;52.304;4.968;2023-08-01T03:48:48;10.90;;;4.65;;
9860;SDS011;4969;52.304;4.968;2023-08-01T03:51:15;11.13;;;4.85;;
9860;SDS011;4969;52.304;4.968;2023-08-01T03:53:42;13.05;;;5.50;;
9860;SDS011;4969;52.304;4.968;2023-08-01T03:56:11;12.30;;;4.75;;
9860;SDS011;4969;52.304;4.968;2023-08-01T03:58:38;9.45;;;4.13;;
9860;SDS011;4969;52.304;4.968;2023-08-01T04:01:05;11.10;;;4.85;;
9860;SDS011;4969;52.304;4.968;2023-08-01T04:03:32;9.35;;;4.80;;
9860;SDS011;4969;52.304;4.968;2023-08-01T04:05:58;12.50;;;5.43;;
9860;SDS011;4969;52.304;4.968;2023-08-01T04:08:25;14.18;;;5.68;;
9860;SDS011;4969;52.304;4.968;2023-08-01T04:10:51;8.75;;;4.53;;
9860;SDS011;4969;52.304;4.968;2023-08-01T04:13:19;13.00;;;5.00;;
9860;SDS011;4969;52.304;4.968;2023-08-01T04:15:46;9.88;;;4.28;;
9860;SDS011;4969;52.304;4.968;2023-08-01T04:18:13;8.82;;;5.07;;
9860;SDS011;4969;52.304;4.968;2023-08-01T04:20:40;9.70;;;4.47;;
9860;SDS011;4969;52.304;4.968;2023-08-01T04:23:07;9.77;;;4.60;;
9860;SDS011;4969;52.304;4.968;2023-08-01T04:25:33;8.00;;;3.83;;
9860;SDS011;4969;52.304;4.968;2023-08-01T04:28:00;10.70;;;5.25;;
9860;SDS011;4969;52.304;4.968;2023-08-01T04:30:28;10.45;;;4.50;;
9860;SDS011;4969;52.304;4.968;2023-08-01T04:32:54;13.43;;;5.03;;
9860;SDS011;4969;52.304;4.968;2023-08-01T04:35:21;10.13;;;4.25;;
9860;SDS011;4969;52.304;4.968;2023-08-01T04:37:47;14.25;;;4.80;;
9860;SDS011;4969;52.304;4.968;2023-08-01T04:40:14;10.35;;;4.28;;
9860;SDS011;4969;52.304;4.968;2023-08-01T04:42:41;12.77;;;4.35;;
9860;SDS011;4969;52.304;4.968;2023-08-01T04:45:08;7.72;;;4.22;;
9860;SDS011;4969;52.304;4.968;2023-08-01T04:47:36;8.48;;;3.83;;
9860;SDS011;4969;52.304;4.968;2023-08-01T04:50:03;9.20;;;4.18;;
9860;SDS011;4969;52.304;4.968;2023-08-01T04:52:30;10.05;;;4.72;;
9860;SDS011;4969;52.304;4.968;2023-08-01T04:54:57;8.25;;;3.85;;
9860;SDS011;4969;52.304;4.968;2023-08-01T04:57:24;6.45;;;3.58;;
9860;SDS011;4969;52.304;4.968;2023-08-01T04:59:50;7.60;;;3.88;;
9860;SDS011;4969;52.304;4.968;2023-08-01T05:02:17;8.05;;;3.58;;
9860;SDS011;4969;52.304;4.968;2023-08-01T05:04:45;10.00;;;4.20;;
9860;SDS011;4969;52.304;4.968;2023-08-01T05:07:11;9.35;;;3.78;;
9860;SDS011;4969;52.304;4.968;2023-08-01T05:09:38;10.02;;;3.88;;
9860;SDS011;4969;52.304;4.968;2023-08-01T05:12:05;11.02;;;4.20;;
9860;SDS011;4969;52.304;4.968;2023-08-01T05:14:33;8.50;;;3.67;;
9860;SDS011;4969;52.304;4.968;2023-08-01T05:16:59;8.35;;;3.28;;
9860;SDS011;4969;52.304;4.968;2023-08-01T05:19:26;8.63;;;3.75;;
9860;SDS011;4969;52.304;4.968;2023-08-01T05:21:54;6.85;;;3.58;;
9860;SDS011;4969;52.304;4.968;2023-08-01T05:24:20;9.18;;;3.58;;
9860;SDS011;4969;52.304;4.968;2023-08-01T05:26:47;7.60;;;3.90;;
9860;SDS011;4969;52.304;4.968;2023-08-01T05:29:14;8.95;;;3.90;;
9860;SDS011;4969;52.304;4.968;2023-08-01T05:31:40;6.68;;;3.47;;
9860;SDS011;4969;52.304;4.968;2023-08-01T05:34:07;9.05;;;3.60;;
9860;SDS011;4969;52.304;4.968;2023-08-01T05:36:33;6.88;;;3.60;;
9860;SDS011;4969;52.304;4.968;2023-08-01T05:39:01;7.65;;;3.88;;
9860;SDS011;4969;52.304;4.968;2023-08-01T05:41:28;8.32;;;3.58;;
9860;SDS011;4969;52.304;4.968;2023-08-01T05:43:55;9.65;;;3.50;;
9860;SDS011;4969;52.304;4.968;2023-08-01T05:46:22;10.00;;;3.80;;
9860;SDS011;4969;52.304;4.968;2023-08-01T05:48:49;7.88;;;3.72;;
9860;SDS011;4969;52.304;4.968;2023-08-01T05:51:15;7.97;;;3.50;;
9860;SDS011;4969;52.304;4.968;2023-08-01T05:53:42;6.53;;;3.70;;
9860;SDS011;4969;52.304;4.968;2023-08-01T05:56:10;7.22;;;3.50;;
9860;SDS011;4969;52.304;4.968;2023-08-01T05:58:37;6.03;;;3.00;;
9860;SDS011;4969;52.304;4.968;2023-08-01T06:01:03;6.30;;;3.15;;
9860;SDS011;4969;52.304;4.968;2023-08-01T06:03:30;5.22;;;3.35;;
9860;SDS011;4969;52.304;4.968;2023-08-01T06:05:56;8.40;;;3.28;;
9860;SDS011;4969;52.304;4.968;2023-08-01T06:08:23;6.38;;;3.10;;
9860;SDS011;4969;52.304;4.968;2023-08-01T06:10:50;5.70;;;3.08;;
9860;SDS011;4969;52.304;4.968;2023-08-01T06:13:18;6.93;;;3.17;;
9860;SDS011;4969;52.304;4.968;2023-08-01T06:15:44;6.22;;;3.10;;
9860;SDS011;4969;52.304;4.968;2023-08-01T06:18:11;6.32;;;3.00;;
9860;SDS011;4969;52.304;4.968;2023-08-01T06:20:38;7.38;;;3.22;;
9860;SDS011;4969;52.304;4.968;2023-08-01T06:23:04;5.45;;;2.80;;
9860;SDS011;4969;52.304;4.968;2023-08-01T06:25:31;6.10;;;3.00;;
9860;SDS011;4969;52.304;4.968;2023-08-01T06:27:58;6.35;;;2.95;;
9860;SDS011;4969;52.304;4.968;2023-08-01T06:30:26;9.88;;;3.40;;
9860;SDS011;4969;52.304;4.968;2023-08-01T06:32:52;9.43;;;3.28;;
9860;SDS011;4969;52.304;4.968;2023-08-01T06:35:19;5.28;;;2.53;;
9860;SDS011;4969;52.304;4.968;2023-08-01T06:37:46;8.55;;;3.20;;
9860;SDS011;4969;52.304;4.968;2023-08-01T06:40:12;8.80;;;3.15;;
9860;SDS011;4969;52.304;4.968;2023-08-01T06:42:39;6.22;;;2.90;;
9860;SDS011;4969;52.304;4.968;2023-08-01T06:45:06;7.47;;;2.88;;
9860;SDS011;4969;52.304;4.968;2023-08-01T06:47:34;5.97;;;3.13;;
9860;SDS011;4969;52.304;4.968;2023-08-01T06:50:01;8.60;;;3.15;;
9860;SDS011;4969;52.304;4.968;2023-08-01T06:52:27;8.18;;;3.10;;
9860;SDS011;4969;52.304;4.968;2023-08-01T06:54:54;5.78;;;2.80;;
9860;SDS011;4969;52.304;4.968;2023-08-01T06:57:21;7.55;;;2.90;;
9860;SDS011;4969;52.304;4.968;2023-08-01T06:59:47;8.18;;;3.28;;
9860;SDS011;4969;52.304;4.968;2023-08-01T07:02:14;7.85;;;3.42;;
9860;SDS011;4969;52.304;4.968;2023-08-01T07:04:42;7.63;;;3.40;;
9860;SDS011;4969;52.304;4.968;2023-08-01T07:07:09;7.30;;;3.30;;
9860;SDS011;4969;52.304;4.968;2023-08-01T07:09:36;9.45;;;3.15;;
9860;SDS011;4969;52.304;4.968;2023-08-01T07:12:03;6.78;;;3.08;;
9860;SDS011;4969;52.304;4.968;2023-08-01T07:14:30;7.45;;;3.10;;
9860;SDS011;4969;52.304;4.968;2023-08-01T07:16:57;6.50;;;2.80;;
9860;SDS011;4969;52.304;4.968;2023-08-01T07:19:24;7.10;;;3.40;;
9860;SDS011;4969;52.304;4.968;2023-08-01T07:21:51;8.98;;;3.13;;
9860;SDS011;4969;52.304;4.968;2023-08-01T07:24:18;7.25;;;2.88;;
9860;SDS011;4969;52.304;4.968;2023-08-01T07:26:45;6.78;;;3.00;;
9860;SDS011;4969;52.304;4.968;2023-08-01T07:29:11;6.88;;;3.17;;
9860;SDS011;4969;52.304;4.968;2023-08-01T07:31:40;5.93;;;3.03;;
9860;SDS011;4969;52.304;4.968;2023-08-01T07:34:08;6.40;;;2.85;;
9860;SDS011;4969;52.304;4.968;2023-08-01T07:36:34;7.32;;;3.50;;
9860;SDS011;4969;52.304;4.968;2023-08-01T07:39:02;6.72;;;3.03;;
9860;SDS011;4969;52.304;4.968;2023-08-01T07:41:29;5.68;;;3.00;;
9860;SDS011;4969;52.304;4.968;2023-08-01T07:43:56;5.63;;;2.70;;
9860;SDS011;4969;52.304;4.968;2023-08-01T07:46:22;6.13;;;3.05;;
9860;SDS011;4969;52.304;4.968;2023-08-01T07:48:49;7.30;;;2.70;;
9860;SDS011;4969;52.304;4.968;2023-08-01T07:51:18;10.32;;;2.95;;
9860;SDS011;4969;52.304;4.968;2023-08-01T07:53:45;6.85;;;2.72;;
9860;SDS011;4969;52.304;4.968;2023-08-01T07:56:13;5.22;;;2.83;;
9860;SDS011;4969;52.304;4.968;2023-08-01T07:58:40;6.57;;;2.90;;
9860;SDS011;4969;52.304;4.968;2023-08-01T08:01:06;7.93;;;3.03;;
9860;SDS011;4969;52.304;4.968;2023-08-01T08:03:33;8.73;;;3.60;;
9860;SDS011;4969;52.304;4.968;2023-08-01T08:06:00;8.57;;;3.67;;
9860;SDS011;4969;52.304;4.968;2023-08-01T08:08:28;6.28;;;3.10;;
9860;SDS011;4969;52.304;4.968;2023-08-01T08:10:55;7.20;;;2.90;;
9860;SDS011;4969;52.304;4.968;2023-08-01T08:13:23;9.45;;;3.60;;
9860;SDS011;4969;52.304;4.968;2023-08-01T08:15:50;10.93;;;3.20;;
9860;SDS011;4969;52.304;4.968;2023-08-01T08:18:17;8.70;;;3.17;;
9860;SDS011;4969;52.304;4.968;2023-08-01T08:20:45;6.43;;;2.90;;
9860;SDS011;4969;52.304;4.968;2023-08-01T08:23:12;6.30;;;3.05;;
9860;SDS011;4969;52.304;4.968;2023-08-01T08:25:39;9.45;;;3.15;;
9860;SDS011;4969;52.304;4.968;2023-08-01T08:28:06;6.18;;;3.00;;
9860;SDS011;4969;52.304;4.968;2023-08-01T08:30:35;8.10;;;2.92;;
9860;SDS011;4969;52.304;4.968;2023-08-01T08:33:03;7.47;;;2.85;;
9860;SDS011;4969;52.304;4.968;2023-08-01T08:35:31;7.38;;;3.30;;
9860;SDS011;4969;52.304;4.968;2023-08-01T08:37:58;8.30;;;2.70;;
9860;SDS011;4969;52.304;4.968;2023-08-01T08:40:25;6.07;;;2.72;;
9860;SDS011;4969;52.304;4.968;2023-08-01T08:42:52;6.82;;;2.90;;
9860;SDS011;4969;52.304;4.968;2023-08-01T08:45:19;10.65;;;3.47;;
9860;SDS011;4969;52.304;4.968;2023-08-01T08:47:49;8.55;;;3.08;;
9860;SDS011;4969;52.304;4.968;2023-08-01T08:50:22;8.13;;;2.97;;
9860;SDS011;4969;52.304;4.968;2023-08-01T08:52:50;7.68;;;2.90;;
9860;SDS011;4969;52.304;4.968;2023-08-01T08:55:17;6.57;;;2.95;;
9860;SDS011;4969;52.304;4.968;2023-08-01T08:57:47;7.85;;;2.97;;
9860;SDS011;4969;52.304;4.968;2023-08-01T09:00:16;6.93;;;3.13;;
9860;SDS011;4969;52.304;4.968;2023-08-01T09:02:43;8.32;;;2.88;;
9860;SDS011;4969;52.304;4.968;2023-08-01T09:05:11;4.70;;;2.05;;
9860;SDS011;4969;52.304;4.968;2023-08-01T09:07:39;4.05;;;2.47;;
9860;SDS011;4969;52.304;4.968;2023-08-01T09:10:09;6.60;;;2.75;;
9860;SDS011;4969;52.304;4.968;2023-08-01T09:12:35;8.88;;;3.22;;
9860;SDS011;4969;52.304;4.968;2023-08-01T09:15:03;10.50;;;3.13;;
9860;SDS011;4969;52.304;4.968;2023-08-01T09:17:30;8.27;;;3.30;;
9860;SDS011;4969;52.304;4.968;2023-08-01T09:20:02;8.15;;;3.38;;
9860;SDS011;4969;52.304;4.968;2023-08-01T09:22:31;6.35;;;3.00;;
9860;SDS011;4969;52.304;4.968;2023-08-01T09:25:07;7.70;;;3.10;;
9860;SDS011;4969;52.304;4.968;2023-08-01T09:27:34;6.53;;;2.63;;
9860;SDS011;4969;52.304;4.968;2023-08-01T09:30:07;6.65;;;2.88;;
9860;SDS011;4969;52.304;4.968;2023-08-01T09:32:38;7.38;;;3.00;;
9860;SDS011;4969;52.304;4.968;2023-08-01T09:35:05;7.22;;;2.53;;
9860;SDS011;4969;52.304;4.968;2023-08-01T09:37:40;5.45;;;2.33;;
9860;SDS011;4969;52.304;4.968;2023-08-01T09:40:08;7.18;;;2.72;;
9860;SDS011;4969;52.304;4.968;2023-08-01T09:42:38;4.18;;;2.15;;
9860;SDS011;4969;52.304;4.968;2023-08-01T09:45:07;5.03;;;2.10;;
9860;SDS011;4969;52.304;4.968;2023-08-01T09:47:38;6.05;;;2.58;;
9860;SDS011;4969;52.304;4.968;2023-08-01T09:50:05;6.88;;;2.63;;
9860;SDS011;4969;52.304;4.968;2023-08-01T09:52:32;7.45;;;2.60;;
9860;SDS011;4969;52.304;4.968;2023-08-01T09:55:01;8.02;;;2.58;;
9860;SDS011;4969;52.304;4.968;2023-08-01T09:57:28;6.10;;;2.30;;
9860;SDS011;4969;52.304;4.968;2023-08-01T09:59:56;5.95;;;2.75;;
9860;SDS011;4969;52.304;4.968;2023-08-01T10:02:24;6.18;;;2.50;;
9860;SDS011;4969;52.304;4.968;2023-08-01T10:04:51;5.30;;;2.42;;
9860;SDS011;4969;52.304;4.968;2023-08-01T10:07:20;6.60;;;2.50;;
9860;SDS011;4969;52.304;4.968;2023-08-01T10:09:50;5.57;;;2.40;;
9860;SDS011;4969;52.304;4.968;2023-08-01T10:12:18;6.38;;;2.50;;
9860;SDS011;4969;52.304;4.968;2023-08-01T10:14:45;6.72;;;2.38;;
9860;SDS011;4969;52.304;4.968;2023-08-01T10:17:11;5.75;;;2.45;;
9860;SDS011;4969;52.304;4.968;2023-08-01T10:19:39;4.50;;;2.55;;
9860;SDS011;4969;52.304;4.968;2023-08-01T10:22:08;8.57;;;2.67;;
9860;SDS011;4969;52.304;4.968;2023-08-01T10:24:34;4.00;;;2.25;;
9860;SDS011;4969;52.304;4.968;2023-08-01T10:27:11;5.10;;;2.22;;
9860;SDS011;4969;52.304;4.968;2023-08-01T10:29:40;2.75;;;1.92;;
9860;SDS011;4969;52.304;4.968;2023-08-01T10:32:07;5.57;;;2.10;;
9860;SDS011;4969;52.304;4.968;2023-08-01T10:34:34;5.22;;;2.15;;
9860;SDS011;4969;52.304;4.968;2023-08-01T10:37:01;5.63;;;2.42;;
9860;SDS011;4969;52.304;4.968;2023-08-01T10:39:28;3.72;;;2.20;;
9860;SDS011;4969;52.304;4.968;2023-08-01T10:41:58;5.22;;;2.30;;
9860;SDS011;4969;52.304;4.968;2023-08-01T10:44:26;4.47;;;2.53;;
9860;SDS011;4969;52.304;4.968;2023-08-01T10:46:55;5.25;;;2.67;;
9860;SDS011;4969;52.304;4.968;2023-08-01T10:49:33;4.18;;;2.35;;
9860;SDS011;4969;52.304;4.968;2023-08-01T10:52:01;6.35;;;2.30;;
9860;SDS011;4969;52.304;4.968;2023-08-01T10:54:28;6.05;;;2.40;;
9860;SDS011;4969;52.304;4.968;2023-08-01T10:56:57;4.50;;;2.20;;
9860;SDS011;4969;52.304;4.968;2023-08-01T10:59:24;6.28;;;2.50;;
9860;SDS011;4969;52.304;4.968;2023-08-01T11:01:51;5.22;;;2.40;;
9860;SDS011;4969;52.304;4.968;2023-08-01T11:04:21;4.72;;;2.30;;
9860;SDS011;4969;52.304;4.968;2023-08-01T11:06:51;4.93;;;2.33;;
9860;SDS011;4969;52.304;4.968;2023-08-01T11:09:21;5.65;;;2.60;;
9860;SDS011;4969;52.304;4.968;2023-08-01T11:11:49;6.03;;;2.60;;
9860;SDS011;4969;52.304;4.968;2023-08-01T11:14:18;4.80;;;2.35;;
9860;SDS011;4969;52.304;4.968;2023-08-01T11:16:46;6.50;;;2.55;;
9860;SDS011;4969;52.304;4.968;2023-08-01T11:19:22;7.22;;;2.45;;
9860;SDS011;4969;52.304;4.968;2023-08-01T11:21:50;8.52;;;2.35;;
9860;SDS011;4969;52.304;4.968;2023-08-01T11:24:18;7.80;;;2.85;;
9860;SDS011;4969;52.304;4.968;2023-08-01T11:26:46;7.38;;;2.70;;
9860;SDS011;4969;52.304;4.968;2023-08-01T11:29:14;7.75;;;2.70;;
9860;SDS011;4969;52.304;4.968;2023-08-01T11:31:51;7.28;;;2.50;;
9860;SDS011;4969;52.304;4.968;2023-08-01T11:34:19;5.68;;;2.10;;
9860;SDS011;4969;52.304;4.968;2023-08-01T11:36:47;7.32;;;2.63;;
9860;SDS011;4969;52.304;4.968;2023-08-01T11:39:15;3.15;;;1.95;;
9860;SDS011;4969;52.304;4.968;2023-08-01T11:41:42;5.78;;;2.17;;
9860;SDS011;4969;52.304;4.968;2023-08-01T11:44:08;5.50;;;2.35;;
9860;SDS011;4969;52.304;4.968;2023-08-01T11:46:36;6.35;;;2.30;;
9860;SDS011;4969;52.304;4.968;2023-08-01T11:49:03;7.28;;;2.50;;
9860;SDS011;4969;52.304;4.968;2023-08-01T11:51:38;4.50;;;2.50;;
9860;SDS011;4969;52.304;4.968;2023-08-01T11:54:07;6.60;;;2.30;;
9860;SDS011;4969;52.304;4.968;2023-08-01T11:56:36;5.82;;;2.65;;
9860;SDS011;4969;52.304;4.968;2023-08-01T11:59:07;4.85;;;2.40;;
9860;SDS011;4969;52.304;4.968;2023-08-01T12:01:37;4.93;;;1.98;;
9860;SDS011;4969;52.304;4.968;2023-08-01T12:04:04;6.82;;;2.00;;
9860;SDS011;4969;52.304;4.968;2023-08-01T12:06:32;5.45;;;2.50;;
9860;SDS011;4969;52.304;4.968;2023-08-01T12:09:06;5.75;;;2.20;;
9860;SDS011;4969;52.304;4.968;2023-08-01T12:11:34;5.82;;;2.28;;
9860;SDS011;4969;52.304;4.968;2023-08-01T12:14:02;3.50;;;2.10;;
9860;SDS011;4969;52.304;4.968;2023-08-01T12:16:29;3.10;;;1.88;;
9860;SDS011;4969;52.304;4.968;2023-08-01T12:18:56;6.03;;;2.25;;
9860;SDS011;4969;52.304;4.968;2023-08-01T12:21:23;4.82;;;1.88;;
9860;SDS011;4969;52.304;4.968;2023-08-01T12:23:50;10.38;;;2.22;;
9860;SDS011;4969;52.304;4.968;2023-08-01T12:26:18;4.22;;;2.05;;
9860;SDS011;4969;52.304;4.968;2023-08-01T12:28:44;4.93;;;2.05;;
9860;SDS011;4969;52.304;4.968;2023-08-01T12:31:15;3.88;;;2.15;;
9860;SDS011;4969;52.304;4.968;2023-08-01T12:33:42;6.55;;;2.10;;
9860;SDS011;4969;52.304;4.968;2023-08-01T12:36:09;6.72;;;2.08;;
9860;SDS011;4969;52.304;4.968;2023-08-01T12:38:35;4.07;;;1.63;;
9860;SDS011;4969;52.304;4.968;2023-08-01T12:41:02;4.20;;;1.48;;
9860;SDS011;4969;52.304;4.968;2023-08-01T12:43:30;3.25;;;1.60;;
9860;SDS011;4969;52.304;4.968;2023-08-01T12:45:56;6.22;;;2.35;;
9860;SDS011;4969;52.304;4.968;2023-08-01T12:48:24;4.55;;;2.40;;
9860;SDS011;4969;52.304;4.968;2023-08-01T12:50:50;5.00;;;2.10;;
9860;SDS011;4969;52.304;4.968;2023-08-01T12:53:18;6.32;;;2.10;;
9860;SDS011;4969;52.304;4.968;2023-08-01T12:55:45;7.18;;;2.08;;
9860;SDS011;4969;52.304;4.968;2023-08-01T12:58:12;5.43;;;2.00;;
9860;SDS011;4969;52.304;4.968;2023-08-01T13:00:40;4.53;;;2.40;;
9860;SDS011;4969;52.304;4.968;2023-08-01T13:03:08;5.20;;;2.33;;
9860;SDS011;4969;52.304;4.968;2023-08-01T13:05:35;3.45;;;2.10;;
9860;SDS011;4969;52.304;4.968;2023-08-01T13:08:03;5.78;;;2.30;;
9860;SDS011;4969;52.304;4.968;2023-08-01T13:10:30;6.15;;;2.92;;
9860;SDS011;4969;52.304;4.968;2023-08-01T13:12:57;5.25;;;2.28;;
9860;SDS011;4969;52.304;4.968;2023-08-01T13:15:24;7.45;;;2.50;;
9860;SDS011;4969;52.304;4.968;2023-08-01T13:17:52;5.82;;;2.78;;
9860;SDS011;4969;52.304;4.968;2023-08-01T13:20:20;6.18;;;2.35;;
9860;SDS011;4969;52.304;4.968;2023-08-01T13:22:48;6.30;;;2.45;;
9860;SDS011;4969;52.304;4.968;2023-08-01T13:25:15;5.00;;;2.47;;
9860;SDS011;4969;52.304;4.968;2023-08-01T13:27:42;8.80;;;3.35;;
9860;SDS011;4969;52.304;4.968;2023-08-01T13:30:09;5.63;;;2.67;;
9860;SDS011;4969;52.304;4.968;2023-08-01T13:32:39;4.80;;;2.50;;
9860;SDS011;4969;52.304;4.968;2023-08-01T13:35:07;7.32;;;2.28;;
9860;SDS011;4969;52.304;4.968;2023-08-01T13:37:34;5.28;;;2.50;;
9860;SDS011;4969;52.304;4.968;2023-08-01T13:40:00;3.45;;;1.98;;
9860;SDS011;4969;52.304;4.968;2023-08-01T13:42:27;7.47;;;2.40;;
9860;SDS011;4969;52.304;4.968;2023-08-01T13:44:54;6.85;;;2.40;;
9860;SDS011;4969;52.304;4.968;2023-08-01T13:47:21;4.95;;;2.42;;
9860;SDS011;4969;52.304;4.968;2023-08-01T13:49:47;4.50;;;2.03;;
9860;SDS011;4969;52.304;4.968;2023-08-01T13:52:15;3.95;;;2.10;;
9860;SDS011;4969;52.304;4.968;2023-08-01T13:54:42;4.25;;;2.20;;
9860;SDS011;4969;52.304;4.968;2023-08-01T13:57:09;8.55;;;2.55;;
9860;SDS011;4969;52.304;4.968;2023-08-01T13:59:35;10.30;;;3.40;;
9860;SDS011;4969;52.304;4.968;2023-08-01T14:02:02;5.35;;;1.98;;
9860;SDS011;4969;52.304;4.968;2023-08-01T14:04:29;4.50;;;1.70;;
9860;SDS011;4969;52.304;4.968;2023-08-01T14:06:56;3.20;;;1.48;;
9860;SDS011;4969;52.304;4.968;2023-08-01T14:09:24;4.80;;;1.73;;
9860;SDS011;4969;52.304;4.968;2023-08-01T14:11:50;3.70;;;1.70;;
9860;SDS011;4969;52.304;4.968;2023-08-01T14:14:17;3.55;;;1.77;;
9860;SDS011;4969;52.304;4.968;2023-08-01T14:16:44;2.60;;;1.50;;
9860;SDS011;4969;52.304;4.968;2023-08-01T14:19:11;3.05;;;1.85;;
9860;SDS011;4969;52.304;4.968;2023-08-01T14:21:37;5.85;;;2.03;;
9860;SDS011;4969;52.304;4.968;2023-08-01T14:24:04;4.45;;;1.90;;
9860;SDS011;4969;52.304;4.968;2023-08-01T14:26:32;5.50;;;2.30;;
9860;SDS011;4969;52.304;4.968;2023-08-01T14:28:59;6.20;;;2.13;;
9860;SDS011;4969;52.304;4.968;2023-08-01T14:31:25;3.40;;;1.90;;
9860;SDS011;4969;52.304;4.968;2023-08-01T14:33:52;5.00;;;2.28;;
9860;SDS011;4969;52.304;4.968;2023-08-01T14:36:18;6.20;;;1.90;;
9860;SDS011;4969;52.304;4.968;2023-08-01T14:38:45;3.83;;;1.85;;
9860;SDS011;4969;52.304;4.968;2023-08-01T14:41:16;3.85;;;2.15;;
9860;SDS011;4969;52.304;4.968;2023-08-01T14:43:44;4.97;;;2.03;;
9860;SDS011;4969;52.304;4.968;2023-08-01T14:46:11;3.60;;;1.77;;
9860;SDS011;4969;52.304;4.968;2023-08-01T14:48:37;3.70;;;1.90;;
9860;SDS011;4969;52.304;4.968;2023-08-01T14:51:04;4.60;;;1.98;;
9860;SDS011;4969;52.304;4.968;2023-08-01T14:53:31;4.90;;;2.20;;
9860;SDS011;4969;52.304;4.968;2023-08-01T14:55:58;5.03;;;1.92;;
9860;SDS011;4969;52.304;4.968;2023-08-01T14:58:27;7.28;;;2.42;;
9860;SDS011;4969;52.304;4.968;2023-08-01T15:00:55;5.72;;;2.22;;
9860;SDS011;4969;52.304;4.968;2023-08-01T15:03:22;4.20;;;2.20;;
9860;SDS011;4969;52.304;4.968;2023-08-01T15:05:49;7.32;;;2.63;;
9860;SDS011;4969;52.304;4.968;2023-08-01T15:08:15;4.90;;;2.40;;
9860;SDS011;4969;52.304;4.968;2023-08-01T15:10:42;5.13;;;2.42;;
9860;SDS011;4969;52.304;4.968;2023-08-01T15:13:09;6.80;;;2.75;;
9860;SDS011;4969;52.304;4.968;2023-08-01T15:15:35;6.63;;;2.20;;